createdAt,value
2022-11-02T00:01:11.046Z,16.94
2022-11-02T00:06:12.287Z,16.85
2022-11-02T00:11:09.456Z,18.55
2022-11-02T00:16:08.694Z,17.66
2022-11-02T00:21:07.930Z,17.62
2022-11-02T00:26:07.119Z,17.54
2022-11-02T00:31:06.332Z,17.31
2022-11-02T00:36:06.541Z,16.93
2022-11-02T00:41:04.679Z,22.70
2022-11-02T00:46:05.870Z,24.20
2022-11-02T00:51:03.034Z,24.47
2022-11-02T00:56:02.203Z,24.93
2022-11-02T01:01:01.420Z,25.15
2022-11-02T01:06:00.608Z,25.32
2022-11-02T01:10:59.771Z,25.33
2022-11-02T01:15:59.956Z,25.39
2022-11-02T01:20:59.116Z,25.17
2022-11-02T01:25:58.277Z,25.15
2022-11-02T01:30:56.602Z,24.98
2022-11-02T01:35:55.855Z,24.67
2022-11-02T01:40:55.197Z,24.39
2022-11-02T01:45:54.493Z,24.09
2022-11-02T01:50:54.818Z,23.85
2022-11-02T01:55:54.112Z,23.57
2022-11-02T02:00:52.427Z,23.50
2022-11-02T02:05:51.741Z,23.35
2022-11-02T02:10:52.054Z,23.13
2022-11-02T02:15:50.359Z,23.01
2022-11-02T02:20:49.658Z,22.79
2022-11-02T02:25:48.978Z,22.67
2022-11-02T02:30:48.327Z,22.37
2022-11-02T02:35:47.626Z,22.14
2022-11-02T02:40:46.929Z,22.15
2022-11-02T02:45:47.231Z,21.86
2022-11-02T02:50:45.552Z,22.02
2022-11-02T02:55:45.887Z,22.03
2022-11-02T03:00:45.186Z,21.90
2022-11-02T03:05:44.494Z,21.83
2022-11-02T03:10:42.790Z,21.77
2022-11-02T03:15:42.115Z,21.72
2022-11-02T03:20:44.551Z,21.67
2022-11-02T03:25:40.640Z,21.65
2022-11-02T03:30:38.929Z,21.80
2022-11-02T03:35:41.248Z,21.59
2022-11-02T03:40:37.542Z,21.52
2022-11-02T03:45:38.853Z,21.21
2022-11-02T03:50:37.163Z,21.19
2022-11-02T03:55:36.461Z,21.25
2022-11-02T04:00:35.756Z,21.34
2022-11-02T04:05:35.065Z,21.56
2022-11-02T04:10:34.390Z,21.50
2022-11-02T04:15:33.709Z,21.71
2022-11-02T04:20:33.032Z,21.90
2022-11-02T04:25:32.341Z,21.74
2022-11-02T04:30:31.670Z,21.77
2022-11-02T04:35:30.778Z,21.69
2022-11-02T04:40:31.070Z,21.83
2022-11-02T04:45:29.394Z,21.88
2022-11-02T04:50:29.714Z,21.86
2022-11-02T04:55:28.036Z,21.79
2022-11-02T05:00:28.367Z,21.53
2022-11-02T05:05:27.683Z,21.54
2022-11-02T05:10:25.983Z,21.56
2022-11-02T05:15:26.297Z,21.59
2022-11-02T05:20:24.596Z,21.64
2022-11-02T05:25:24.967Z,21.59
2022-11-02T05:30:24.075Z,21.46
2022-11-02T05:35:23.365Z,21.27
2022-11-02T05:40:23.656Z,21.10
2022-11-02T05:45:24.458Z,21.16
2022-11-02T05:50:20.124Z,21.47
2022-11-02T05:55:21.413Z,21.37
2022-11-02T06:00:18.678Z,21.54
2022-11-02T06:05:18.080Z,21.90
2022-11-02T06:10:17.165Z,21.68
2022-11-02T06:15:16.440Z,21.99
2022-11-02T06:20:15.738Z,22.15
2022-11-02T06:25:17.003Z,21.58
2022-11-02T06:30:14.293Z,21.56
2022-11-02T06:35:13.584Z,21.49
2022-11-02T06:40:13.888Z,21.56
2022-11-02T06:45:12.184Z,21.65
2022-11-02T06:50:11.510Z,21.59
2022-11-02T06:55:11.824Z,21.67
2022-11-02T07:05:09.312Z,21.34
2022-11-02T07:10:09.634Z,21.16
2022-11-02T07:15:08.941Z,21.25
2022-11-02T07:20:08.271Z,21.10
2022-11-02T07:25:06.609Z,21.28
2022-11-02T07:30:06.890Z,21.44
2022-11-02T07:35:06.180Z,21.49
2022-11-02T07:40:04.490Z,22.24
2022-11-02T07:45:03.790Z,22.18
2022-11-02T07:50:03.099Z,22.47
2022-11-02T07:55:03.404Z,22.60
2022-11-02T08:00:02.742Z,22.33
2022-11-02T08:05:02.045Z,22.07
2022-11-02T08:10:00.375Z,21.82
2022-11-02T08:15:03.427Z,21.68
2022-11-02T08:19:58.692Z,21.54
2022-11-02T08:25:00.024Z,21.50
2022-11-02T08:29:57.344Z,21.54
2022-11-02T08:34:57.509Z,21.69
2022-11-02T08:39:57.861Z,21.59
2022-11-02T08:44:55.150Z,21.35
2022-11-02T08:49:54.499Z,21.17
2022-11-02T08:54:53.661Z,21.28
2022-11-02T08:59:52.789Z,20.79
2022-11-02T09:04:52.100Z,21.14
2022-11-02T09:09:51.400Z,21.72
2022-11-02T09:15:02.697Z,21.44
2022-11-02T09:19:51.909Z,20.97
2022-11-02T09:24:49.209Z,21.50
2022-11-02T09:29:49.588Z,21.69
2022-11-02T09:34:47.714Z,21.84
2022-11-02T09:39:47.038Z,22.27
2022-11-02T09:44:47.371Z,22.61
2022-11-02T09:49:47.695Z,22.72
2022-11-02T09:54:44.992Z,22.76
2022-11-02T09:59:45.145Z,22.15
2022-11-02T10:04:43.270Z,22.27
2022-11-02T10:09:43.595Z,22.03
2022-11-02T10:14:42.951Z,21.88
2022-11-02T10:19:41.060Z,21.98
2022-11-02T10:24:40.385Z,21.91
2022-11-02T10:29:39.739Z,21.96
2022-11-02T10:34:38.865Z,21.96
2022-11-02T10:39:39.194Z,21.90
2022-11-02T10:44:38.513Z,21.54
2022-11-02T10:49:36.837Z,21.38
2022-11-02T10:54:36.169Z,21.74
2022-11-02T10:59:35.477Z,22.02
2022-11-02T11:04:35.814Z,22.28
2022-11-02T11:09:34.919Z,22.76
2022-11-02T11:24:32.785Z,22.94
2022-11-02T11:29:31.965Z,22.98
2022-11-02T11:34:30.089Z,23.00
2022-11-02T11:39:31.400Z,23.07
2022-11-02T11:44:28.733Z,23.02
2022-11-02T11:50:07.639Z,22.80
2022-11-02T11:54:27.248Z,22.37
2022-11-02T11:59:26.598Z,22.52
2022-11-02T12:04:25.910Z,22.47
2022-11-02T12:09:25.064Z,22.21
2022-11-02T12:14:24.185Z,22.20
2022-11-02T12:19:27.231Z,22.15
2022-11-02T12:24:22.655Z,22.06
2022-11-02T12:29:21.953Z,22.07
2022-11-02T12:34:22.241Z,22.12
2022-11-02T12:39:21.580Z,22.02
2022-11-02T12:44:20.871Z,22.21
2022-11-02T12:49:19.203Z,22.40
2022-11-02T12:54:18.343Z,22.67
2022-11-02T12:59:17.684Z,23.19
2022-11-02T13:04:19.231Z,23.39
2022-11-02T13:09:17.061Z,23.32
2022-11-02T13:14:17.376Z,23.32
2022-11-02T13:19:15.684Z,23.47
2022-11-02T13:24:15.029Z,23.57
2022-11-02T13:29:15.179Z,23.53
2022-11-02T13:34:12.336Z,23.39
2022-11-02T13:39:12.464Z,23.43
2022-11-02T13:44:10.807Z,23.38
2022-11-02T13:49:10.139Z,23.09
2022-11-02T13:54:10.283Z,22.77
2022-11-02T13:59:09.617Z,22.61
2022-11-02T14:04:09.029Z,22.37
2022-11-02T14:09:07.149Z,22.28
2022-11-02T14:14:06.491Z,22.18
2022-11-02T14:19:09.902Z,21.96
2022-11-02T14:24:06.960Z,21.90
2022-11-02T14:29:04.075Z,21.79
2022-11-02T14:34:05.420Z,21.69
2022-11-02T14:44:02.724Z,22.21
2022-11-02T14:49:02.047Z,22.49
2022-11-02T14:54:00.371Z,22.85
2022-11-02T14:59:00.557Z,23.01
2022-11-02T15:03:59.668Z,23.02
2022-11-02T15:08:58.868Z,23.07
2022-11-02T15:13:57.201Z,23.05
2022-11-02T15:18:56.512Z,23.07
2022-11-02T15:23:57.840Z,23.10
2022-11-02T15:28:56.125Z,22.73
2022-11-02T15:33:54.425Z,22.45
2022-11-02T15:38:53.738Z,22.33
2022-11-02T15:48:54.360Z,21.98
2022-11-02T15:53:52.655Z,21.86
2022-11-02T15:58:50.996Z,21.72
2022-11-02T16:03:54.169Z,21.67
2022-11-02T16:08:50.247Z,21.58
2022-11-02T16:14:07.978Z,21.50
2022-11-02T16:18:47.746Z,21.42
2022-11-02T16:23:47.093Z,21.22
2022-11-02T16:28:47.217Z,21.04
2022-11-02T16:33:46.788Z,20.88
2022-11-02T16:38:46.019Z,20.88
2022-11-02T16:43:45.751Z,21.01
2022-11-02T16:48:43.335Z,21.14
2022-11-02T16:53:42.652Z,21.27
2022-11-02T16:58:41.627Z,21.44
2022-11-02T17:03:40.954Z,21.52
2022-11-02T17:08:39.909Z,21.75
2022-11-02T17:13:39.291Z,21.82
2022-11-02T17:18:43.431Z,21.65
2022-11-02T17:23:38.062Z,21.50
2022-11-02T17:28:37.058Z,21.38
2022-11-02T17:33:37.255Z,21.28
2022-11-02T17:38:35.463Z,21.13
2022-11-02T17:43:34.677Z,21.06
2022-11-02T17:48:33.988Z,20.87
2022-11-02T17:53:33.176Z,20.88
2022-11-02T17:58:33.342Z,20.88
2022-11-02T18:03:32.786Z,20.73
2022-11-02T18:08:31.054Z,20.66
2022-11-02T18:13:30.073Z,19.99
2022-11-02T18:18:28.718Z,19.68
2022-11-02T18:23:29.840Z,20.06
2022-11-02T18:28:28.802Z,21.06
2022-11-02T18:33:27.321Z,21.64
2022-11-02T18:38:27.592Z,21.92
2022-11-02T18:43:24.843Z,22.07
2022-11-02T18:48:25.096Z,22.20
2022-11-02T18:53:28.029Z,22.40
2022-11-02T18:58:24.496Z,22.52
2022-11-02T19:03:22.479Z,22.55
2022-11-02T19:08:24.648Z,22.55
2022-11-02T19:13:20.989Z,22.49
2022-11-02T19:18:21.580Z,22.05
2022-11-02T19:23:18.776Z,21.82
2022-11-02T19:28:20.096Z,21.75
2022-11-02T19:33:19.087Z,21.64
2022-11-02T19:38:17.368Z,21.68
2022-11-02T19:43:16.583Z,21.79
2022-11-02T19:48:15.892Z,21.90
2022-11-02T19:53:14.800Z,21.84
2022-11-02T19:58:15.584Z,21.56
2022-11-02T20:03:16.712Z,21.49
2022-11-02T20:08:14.665Z,21.61
2022-11-02T20:13:13.827Z,21.67
2022-11-02T20:18:20.230Z,22.30
2022-11-02T20:23:09.791Z,22.61
2022-11-02T20:28:10.669Z,22.06
2022-11-02T20:33:09.517Z,21.80
2022-11-02T20:38:09.465Z,21.64
2022-11-02T20:43:07.923Z,21.24
2022-11-02T20:48:08.656Z,21.47
2022-11-02T20:53:06.485Z,21.37
2022-11-02T20:58:05.521Z,21.68
2022-11-02T21:03:05.232Z,21.83
2022-11-02T21:08:04.196Z,21.80
2022-11-02T21:13:03.246Z,21.88
2022-11-02T21:18:02.551Z,21.46
2022-11-02T21:23:02.737Z,21.31
2022-11-02T21:28:02.043Z,21.34
2022-11-02T21:33:00.227Z,21.42
2022-11-02T21:38:01.354Z,21.29
2022-11-02T21:42:58.339Z,21.25
2022-11-02T21:47:57.535Z,21.14
2022-11-02T21:52:56.722Z,21.56
2022-11-02T21:57:56.982Z,21.32
2022-11-02T22:02:59.177Z,21.38
2022-11-02T22:07:54.353Z,21.68
2022-11-02T22:12:53.587Z,22.27
2022-11-02T22:17:52.791Z,23.31
2022-11-02T22:22:56.007Z,25.76
2022-11-02T22:27:52.180Z,26.18
2022-11-02T22:32:50.374Z,27.02
2022-11-02T22:37:49.578Z,26.69
2022-11-02T22:42:47.778Z,25.80
2022-11-02T22:47:47.995Z,24.80
2022-11-02T22:52:48.185Z,23.90
2022-11-02T22:57:46.340Z,24.09
2022-11-02T23:02:46.537Z,24.45
2022-11-02T23:07:43.702Z,24.05
2022-11-02T23:12:43.869Z,23.91
2022-11-02T23:17:43.043Z,24.06
2022-11-02T23:22:42.216Z,23.27
2022-11-02T23:27:41.394Z,22.98
2022-11-02T23:32:40.618Z,23.28
2022-11-02T23:37:39.791Z,23.58
2022-11-02T23:42:40.055Z,22.80
2022-11-02T23:47:37.282Z,23.57
2022-11-02T23:52:37.529Z,22.97
2022-11-02T23:57:37.742Z,22.22
